createdAt,value
2023-11-02T00:01:37.424Z,4.75
2023-11-02T00:04:05.401Z,5.28
2023-11-02T00:06:37.657Z,7.50
2023-11-02T00:09:09.872Z,5.50
2023-11-02T00:11:52.715Z,4.10
2023-11-02T00:14:20.940Z,4.70
2023-11-02T00:16:49.226Z,4.00
2023-11-02T00:19:31.967Z,4.35
2023-11-02T00:22:00.624Z,4.90
2023-11-02T00:24:32.753Z,5.15
2023-11-02T00:27:00.428Z,6.07
2023-11-02T00:29:36.296Z,5.88
2023-11-02T00:32:04.345Z,7.03
2023-11-02T00:34:35.665Z,6.95
2023-11-02T00:37:03.350Z,5.65
2023-11-02T00:39:31.290Z,4.20
2023-11-02T00:41:59.481Z,5.50
2023-11-02T00:44:28.608Z,5.47
2023-11-02T00:46:56.393Z,2.67
2023-11-02T00:49:24.633Z,3.95
2023-11-02T00:51:56.156Z,4.38
2023-11-02T00:54:42.938Z,3.33
2023-11-02T00:57:12.485Z,2.67
2023-11-02T00:59:40.541Z,3.95
2023-11-02T01:02:11.659Z,4.63
2023-11-02T01:07:06.708Z,4.20
2023-11-02T01:09:42.085Z,4.72
2023-11-02T01:12:09.886Z,3.15
2023-11-02T01:14:50.890Z,3.75
2023-11-02T01:17:41.898Z,2.88
2023-11-02T01:20:13.453Z,2.70
2023-11-02T01:22:51.771Z,3.17
2023-11-02T01:25:20.020Z,3.33
2023-11-02T01:27:52.348Z,2.65
2023-11-02T01:30:20.676Z,2.65
2023-11-02T01:32:48.513Z,1.90
2023-11-02T01:35:31.373Z,5.10
2023-11-02T01:37:58.933Z,3.17
2023-11-02T01:43:23.375Z,3.00
2023-11-02T01:45:54.749Z,3.25
2023-11-02T01:48:29.763Z,2.22
2023-11-02T01:50:59.660Z,4.25
2023-11-02T01:53:41.335Z,2.65
2023-11-02T01:56:27.460Z,4.88
2023-11-02T01:59:01.337Z,2.17
2023-11-02T02:01:33.981Z,3.50
2023-11-02T02:04:06.946Z,2.05
2023-11-02T02:06:46.851Z,3.03
2023-11-02T02:09:35.206Z,3.25
2023-11-02T02:12:12.969Z,2.20
2023-11-02T02:15:01.000Z,2.83
2023-11-02T02:17:47.511Z,2.95
2023-11-02T02:20:18.778Z,2.75
2023-11-02T02:22:55.267Z,1.23
2023-11-02T02:25:25.809Z,1.83
2023-11-02T02:28:07.852Z,2.72
2023-11-02T02:30:48.361Z,1.52
2023-11-02T02:33:28.247Z,2.37
2023-11-02T02:35:59.858Z,1.70
2023-11-02T02:38:41.833Z,2.03
2023-11-02T02:41:10.330Z,2.38
2023-11-02T02:43:38.505Z,2.10
2023-11-02T02:46:08.333Z,2.75
2023-11-02T02:48:36.383Z,3.38
2023-11-02T02:51:05.089Z,1.40
2023-11-02T02:53:38.859Z,1.35
2023-11-02T02:56:10.246Z,2.05
2023-11-02T02:58:53.197Z,1.55
2023-11-02T03:01:21.714Z,2.70
2023-11-02T03:03:53.441Z,1.75
2023-11-02T03:06:21.710Z,1.20
2023-11-02T03:08:50.368Z,1.65
2023-11-02T03:11:21.708Z,2.17
2023-11-02T03:13:52.844Z,1.92
2023-11-02T03:16:21.998Z,1.33
2023-11-02T03:18:54.252Z,1.95
2023-11-02T03:21:21.955Z,2.15
2023-11-02T03:23:55.426Z,2.10
2023-11-02T03:26:49.763Z,2.50
2023-11-02T03:29:37.335Z,2.88
2023-11-02T03:32:17.204Z,2.22
2023-11-02T03:34:48.124Z,1.65
2023-11-02T03:37:24.911Z,2.17
2023-11-02T03:40:30.796Z,2.10
2023-11-02T03:43:10.360Z,1.63
2023-11-02T03:45:58.114Z,3.05
2023-11-02T03:48:36.448Z,3.38
2023-11-02T03:51:12.508Z,3.28
2023-11-02T03:53:55.822Z,1.73
2023-11-02T03:56:35.248Z,2.22
2023-11-02T03:59:08.006Z,2.70
2023-11-02T04:01:38.813Z,2.67
2023-11-02T04:04:08.406Z,2.47
2023-11-02T04:06:57.048Z,2.20
2023-11-02T04:09:25.222Z,4.18
2023-11-02T04:12:01.360Z,5.53
2023-11-02T04:14:30.547Z,3.60
2023-11-02T04:17:02.034Z,2.72
2023-11-02T04:19:29.667Z,3.92
2023-11-02T04:21:57.228Z,2.70
2023-11-02T04:24:25.542Z,5.03
2023-11-02T04:26:53.144Z,4.68
2023-11-02T04:29:20.708Z,2.05
2023-11-02T04:31:48.224Z,2.75
2023-11-02T04:34:15.849Z,3.60
2023-11-02T04:36:43.525Z,2.10
2023-11-02T04:39:11.205Z,1.90
2023-11-02T04:41:38.861Z,3.85
2023-11-02T04:44:06.506Z,2.85
2023-11-02T04:46:34.055Z,2.33
2023-11-02T04:49:03.627Z,1.58
2023-11-02T04:51:31.192Z,1.75
2023-11-02T04:53:58.908Z,2.95
2023-11-02T04:56:26.448Z,3.03
2023-11-02T04:58:54.053Z,2.60
2023-11-02T05:01:22.700Z,2.50
2023-11-02T05:03:52.413Z,3.25
2023-11-02T05:06:20.189Z,1.85
2023-11-02T05:08:47.751Z,1.83
2023-11-02T05:11:15.266Z,1.55
2023-11-02T05:13:43.223Z,2.00
2023-11-02T05:16:10.835Z,2.35
2023-11-02T05:18:38.488Z,2.92
2023-11-02T05:21:06.568Z,3.38
2023-11-02T05:23:34.185Z,2.65
2023-11-02T05:26:03.293Z,2.45
2023-11-02T05:28:30.965Z,2.10
2023-11-02T05:30:58.793Z,2.65
2023-11-02T05:33:26.516Z,4.22
2023-11-02T05:35:54.200Z,6.43
2023-11-02T05:38:22.353Z,2.20
2023-11-02T05:40:50.150Z,5.18
2023-11-02T05:43:17.812Z,3.70
2023-11-02T05:45:45.485Z,2.58
2023-11-02T05:48:13.291Z,6.68
2023-11-02T05:50:40.958Z,4.85
2023-11-02T05:53:08.601Z,5.60
2023-11-02T05:55:36.547Z,2.60
2023-11-02T05:58:04.162Z,3.00
2023-11-02T06:00:31.912Z,2.83
2023-11-02T06:02:59.611Z,2.92
2023-11-02T06:05:27.284Z,5.18
2023-11-02T06:07:55.470Z,3.42
2023-11-02T06:10:23.197Z,3.92
2023-11-02T06:12:50.735Z,4.88
2023-11-02T06:15:19.329Z,6.50
2023-11-02T06:17:47.090Z,5.30
2023-11-02T06:20:15.368Z,6.22
2023-11-02T06:22:43.108Z,7.25
2023-11-02T06:25:10.956Z,4.25
2023-11-02T06:27:38.724Z,6.97
2023-11-02T06:30:06.808Z,4.45
2023-11-02T06:32:34.485Z,5.22
2023-11-02T06:35:02.234Z,4.88
2023-11-02T06:37:29.930Z,4.47
2023-11-02T06:39:57.589Z,6.45
2023-11-02T06:42:28.547Z,5.75
2023-11-02T06:47:23.814Z,5.65
2023-11-02T06:49:52.007Z,5.68
2023-11-02T06:52:20.372Z,6.68
2023-11-02T06:54:48.078Z,7.30
2023-11-02T06:57:15.701Z,8.40
2023-11-02T06:59:43.526Z,6.70
2023-11-02T07:02:11.418Z,6.90
2023-11-02T07:04:39.138Z,3.42
2023-11-02T07:07:06.996Z,4.00
2023-11-02T07:09:34.752Z,6.50
2023-11-02T07:12:04.240Z,6.95
2023-11-02T07:14:31.953Z,7.97
2023-11-02T07:16:59.633Z,5.95
2023-11-02T07:19:27.430Z,4.85
2023-11-02T07:21:55.214Z,5.68
2023-11-02T07:24:26.387Z,8.98
2023-11-02T07:26:54.097Z,4.53
2023-11-02T07:29:25.495Z,6.45
2023-11-02T07:31:53.093Z,7.40
2023-11-02T07:34:20.698Z,6.57
2023-11-02T07:36:49.676Z,8.00
2023-11-02T07:39:17.498Z,6.88
2023-11-02T07:41:45.257Z,7.80
2023-11-02T07:44:16.940Z,6.90
2023-11-02T07:46:44.642Z,7.50
2023-11-02T07:49:12.378Z,5.25
2023-11-02T07:51:40.159Z,5.50
2023-11-02T07:54:08.569Z,7.05
2023-11-02T07:56:37.525Z,7.15
2023-11-02T07:59:05.233Z,6.07
2023-11-02T08:01:32.838Z,6.22
2023-11-02T08:04:03.392Z,5.97
2023-11-02T08:06:33.039Z,6.28
2023-11-02T08:09:01.209Z,5.60
2023-11-02T08:11:32.872Z,6.45
2023-11-02T08:14:01.150Z,6.75
2023-11-02T08:16:32.884Z,3.38
2023-11-02T08:19:00.647Z,5.00
2023-11-02T08:21:28.495Z,2.67
2023-11-02T08:23:56.165Z,1.83
2023-11-02T08:26:24.585Z,3.40
2023-11-02T08:28:53.169Z,3.25
2023-11-02T08:31:27.749Z,3.55
2023-11-02T08:33:55.630Z,3.97
2023-11-02T08:36:26.687Z,2.83
2023-11-02T08:38:54.444Z,1.33
2023-11-02T08:41:23.639Z,4.28
2023-11-02T08:43:52.078Z,1.15
2023-11-02T08:46:20.356Z,1.23
2023-11-02T08:48:49.094Z,1.50
2023-11-02T08:51:17.681Z,2.75
2023-11-02T08:53:45.883Z,3.88
2023-11-02T08:56:13.738Z,2.85
2023-11-02T08:58:45.439Z,0.65
2023-11-02T09:01:14.246Z,2.35
2023-11-02T09:03:42.699Z,3.17
2023-11-02T09:06:10.965Z,2.13
2023-11-02T09:08:39.659Z,1.08
2023-11-02T09:11:07.422Z,0.90
2023-11-02T09:13:35.963Z,1.02
2023-11-02T09:16:03.926Z,2.83
2023-11-02T09:18:32.325Z,3.13
2023-11-02T09:21:00.037Z,1.42
2023-11-02T09:23:27.765Z,4.22
2023-11-02T09:25:55.398Z,1.23
2023-11-02T09:28:23.133Z,2.80
2023-11-02T09:30:50.798Z,1.60
2023-11-02T09:33:20.078Z,1.75
2023-11-02T09:35:48.198Z,1.55
2023-11-02T09:38:16.048Z,0.22
2023-11-02T09:40:43.733Z,0.60
2023-11-02T09:43:12.241Z,0.85
2023-11-02T09:45:40.155Z,0.60
2023-11-02T09:48:07.991Z,3.00
2023-11-02T09:50:35.719Z,2.30
2023-11-02T09:53:04.865Z,0.63
2023-11-02T09:55:32.610Z,1.05
2023-11-02T09:58:00.955Z,0.98
2023-11-02T10:00:29.146Z,1.13
2023-11-02T10:02:56.842Z,1.00
2023-11-02T10:05:25.810Z,0.65
2023-11-02T10:07:53.600Z,2.75
2023-11-02T10:10:22.779Z,1.77
2023-11-02T10:12:50.444Z,0.65
2023-11-02T10:15:18.971Z,2.08
2023-11-02T10:17:48.081Z,1.10
2023-11-02T10:20:16.903Z,2.78
2023-11-02T10:23:12.384Z,0.73
2023-11-02T10:25:43.904Z,0.55
2023-11-02T10:28:14.993Z,1.73
2023-11-02T10:30:43.606Z,0.30
2023-11-02T10:33:11.954Z,0.40
2023-11-02T10:35:40.725Z,1.05
2023-11-02T10:38:13.085Z,2.38
2023-11-02T10:40:47.509Z,1.38
2023-11-02T10:43:23.188Z,1.30
2023-11-02T10:45:51.800Z,1.27
2023-11-02T10:48:20.130Z,1.58
2023-11-02T10:50:48.675Z,1.35
2023-11-02T10:53:29.933Z,0.55
2023-11-02T10:56:01.470Z,2.45
2023-11-02T10:58:29.689Z,1.95
2023-11-02T11:00:57.573Z,1.55
2023-11-02T11:03:25.352Z,1.95
2023-11-02T11:05:53.008Z,2.15
2023-11-02T11:08:21.106Z,1.88
2023-11-02T11:10:51.293Z,0.80
2023-11-02T11:13:19.785Z,0.67
2023-11-02T11:15:47.766Z,1.02
2023-11-02T11:18:16.053Z,0.60
2023-11-02T11:20:45.128Z,1.23
2023-11-02T11:23:15.189Z,0.80
2023-11-02T11:26:01.098Z,0.77
2023-11-02T11:28:30.483Z,1.52
2023-11-02T11:30:59.314Z,1.33
2023-11-02T11:33:46.358Z,1.52
2023-11-02T11:36:21.020Z,0.98
2023-11-02T11:38:49.192Z,3.00
2023-11-02T11:41:44.246Z,0.50
2023-11-02T11:44:22.204Z,1.92
2023-11-02T11:46:54.245Z,0.77
2023-11-02T11:49:38.109Z,1.90
2023-11-02T11:52:06.436Z,0.80
2023-11-02T11:54:34.484Z,1.05
2023-11-02T11:57:02.234Z,0.70
2023-11-02T11:59:48.726Z,1.90
2023-11-02T12:02:37.306Z,1.20
2023-11-02T12:05:05.440Z,1.15
2023-11-02T12:07:34.686Z,0.65
2023-11-02T12:10:05.901Z,0.60
2023-11-02T12:12:34.672Z,0.90
2023-11-02T12:15:22.515Z,0.98
2023-11-02T12:17:51.774Z,0.60
2023-11-02T12:20:35.403Z,0.88
2023-11-02T12:23:03.294Z,1.20
2023-11-02T12:25:31.262Z,0.52
2023-11-02T12:27:59.455Z,0.77
2023-11-02T12:30:27.151Z,1.95
2023-11-02T12:32:54.943Z,0.40
2023-11-02T12:35:23.821Z,0.20
2023-11-02T12:38:08.476Z,0.57
2023-11-02T12:40:52.316Z,0.30
2023-11-02T12:43:23.708Z,0.20
2023-11-02T12:45:56.334Z,0.40
2023-11-02T12:48:30.062Z,1.50
2023-11-02T12:50:57.914Z,0.60
2023-11-02T12:53:33.095Z,0.77
2023-11-02T12:56:02.206Z,1.55
2023-11-02T12:58:29.893Z,1.08
2023-11-02T13:01:00.224Z,0.25
2023-11-02T13:03:29.023Z,0.30
2023-11-02T13:05:56.800Z,0.88
2023-11-02T13:08:24.467Z,3.70
2023-11-02T13:10:55.750Z,0.82
2023-11-02T13:13:23.651Z,0.30
2023-11-02T13:15:52.922Z,0.35
2023-11-02T13:18:21.058Z,0.95
2023-11-02T13:20:49.383Z,0.50
2023-11-02T13:23:17.472Z,0.25
2023-11-02T13:25:45.253Z,0.45
2023-11-02T13:28:13.062Z,0.80
2023-11-02T13:30:42.351Z,2.05
2023-11-02T13:33:10.619Z,0.95
2023-11-02T13:35:38.675Z,0.45
2023-11-02T13:38:07.271Z,1.83
2023-11-02T13:40:34.969Z,0.85
2023-11-02T13:43:03.003Z,1.75
2023-11-02T13:45:33.049Z,1.58
2023-11-02T13:48:01.189Z,0.80
2023-11-02T13:50:29.747Z,1.88
2023-11-02T13:52:57.730Z,1.35
2023-11-02T13:55:25.311Z,3.90
2023-11-02T13:57:53.614Z,1.48
2023-11-02T14:00:22.297Z,3.72
2023-11-02T14:02:50.223Z,1.10
2023-11-02T14:05:18.746Z,2.30
2023-11-02T14:07:48.605Z,1.60
2023-11-02T14:10:18.397Z,3.05
2023-11-02T14:12:47.999Z,2.63
2023-11-02T14:15:16.076Z,4.80
2023-11-02T14:17:44.764Z,4.18
2023-11-02T14:20:12.769Z,4.60
2023-11-02T14:22:40.300Z,2.08
2023-11-02T14:25:10.450Z,1.85
2023-11-02T14:27:38.536Z,1.90
2023-11-02T14:30:06.586Z,1.20
2023-11-02T14:32:34.306Z,1.98
2023-11-02T14:35:01.964Z,1.13
2023-11-02T14:37:29.708Z,0.80
2023-11-02T14:39:57.780Z,0.28
2023-11-02T14:42:26.386Z,1.95
2023-11-02T14:44:56.856Z,1.08
2023-11-02T14:47:26.055Z,0.88
2023-11-02T14:49:53.732Z,1.55
2023-11-02T14:52:21.834Z,0.55
2023-11-02T14:54:55.824Z,2.40
2023-11-02T14:57:29.409Z,1.60
2023-11-02T14:59:57.287Z,1.25
2023-11-02T15:02:25.303Z,1.02
2023-11-02T15:04:53.486Z,1.27
2023-11-02T15:07:22.268Z,0.57
2023-11-02T15:09:50.085Z,0.82
2023-11-02T15:12:17.950Z,0.47
2023-11-02T15:14:46.049Z,0.90
2023-11-02T15:17:13.846Z,2.03
2023-11-02T15:19:42.823Z,1.83
2023-11-02T15:22:11.195Z,0.57
2023-11-02T15:24:39.905Z,0.98
2023-11-02T15:27:07.851Z,0.45
2023-11-02T15:29:36.107Z,0.98
2023-11-02T15:32:04.522Z,0.43
2023-11-02T15:34:32.503Z,0.70
2023-11-02T15:37:00.810Z,1.88
2023-11-02T15:39:30.978Z,0.68
2023-11-02T15:41:59.229Z,1.65
2023-11-02T15:44:27.035Z,1.15
2023-11-02T15:46:54.800Z,1.70
2023-11-02T15:49:22.570Z,0.93
2023-11-02T15:51:50.194Z,1.42
2023-11-02T15:54:18.583Z,1.27
2023-11-02T15:56:46.265Z,1.85
2023-11-02T15:59:16.076Z,1.67
2023-11-02T16:01:43.689Z,2.10
2023-11-02T16:04:11.682Z,4.53
2023-11-02T16:06:39.390Z,2.80
2023-11-02T16:09:07.126Z,2.08
2023-11-02T16:11:34.736Z,3.42
2023-11-02T16:14:04.083Z,4.05
2023-11-02T16:16:32.028Z,1.80
2023-11-02T16:19:00.177Z,1.65
2023-11-02T16:21:29.343Z,3.03
2023-11-02T16:23:57.275Z,1.80
2023-11-02T16:26:25.959Z,2.08
2023-11-02T16:28:54.262Z,1.92
2023-11-02T16:31:24.794Z,1.23
2023-11-02T16:33:53.455Z,3.85
2023-11-02T16:36:47.526Z,2.25
2023-11-02T16:39:15.372Z,3.05
2023-11-02T16:41:46.449Z,5.57
2023-11-02T16:46:43.352Z,2.35
2023-11-02T16:49:12.048Z,2.67
2023-11-02T16:51:41.450Z,2.28
2023-11-02T16:54:17.453Z,9.43
2023-11-02T16:56:45.651Z,4.82
2023-11-02T16:59:19.526Z,3.20
2023-11-02T17:01:47.759Z,2.25
2023-11-02T17:04:15.590Z,1.15
2023-11-02T17:06:44.058Z,5.35
2023-11-02T17:09:12.270Z,1.58
2023-11-02T17:11:41.335Z,1.02
2023-11-02T17:14:08.977Z,1.55
2023-11-02T17:16:36.679Z,0.82
2023-11-02T17:19:04.593Z,1.17
2023-11-02T17:21:32.491Z,1.98
2023-11-02T17:24:00.209Z,1.48
2023-11-02T17:26:27.974Z,0.68
2023-11-02T17:28:55.633Z,1.25
2023-11-02T17:31:23.191Z,1.52
2023-11-02T17:33:51.338Z,13.82
2023-11-02T17:36:19.041Z,4.20
2023-11-02T17:38:46.644Z,0.95
2023-11-02T17:41:14.411Z,1.10
2023-11-02T17:43:47.268Z,2.38
2023-11-02T17:46:17.047Z,0.90
2023-11-02T17:48:46.923Z,0.80
2023-11-02T17:51:14.587Z,1.35
2023-11-02T17:53:46.601Z,1.05
2023-11-02T17:56:14.206Z,0.30
2023-11-02T17:58:41.798Z,1.00
2023-11-02T18:01:09.515Z,1.35
2023-11-02T18:03:37.200Z,3.25
2023-11-02T18:06:05.134Z,1.20
2023-11-02T18:08:32.818Z,0.98
2023-11-02T18:11:00.621Z,0.85
2023-11-02T18:13:28.523Z,1.63
2023-11-02T18:15:56.609Z,0.75
2023-11-02T18:18:24.528Z,1.25
2023-11-02T18:20:52.511Z,1.35
2023-11-02T18:23:22.432Z,1.33
2023-11-02T18:25:50.117Z,1.42
2023-11-02T18:28:18.066Z,1.52
2023-11-02T18:30:45.830Z,1.70
2023-11-02T18:33:14.134Z,3.45
2023-11-02T18:35:41.901Z,1.48
2023-11-02T18:38:13.241Z,1.30
2023-11-02T18:40:46.853Z,1.90
2023-11-02T18:43:15.881Z,1.45
2023-11-02T18:45:43.823Z,1.40
2023-11-02T18:48:18.061Z,2.10
2023-11-02T18:50:45.826Z,6.00
2023-11-02T18:53:13.904Z,6.28
2023-11-02T18:55:43.195Z,4.95
2023-11-02T18:58:10.864Z,4.22
2023-11-02T19:00:44.363Z,6.35
2023-11-02T19:03:13.098Z,8.25
2023-11-02T19:05:45.144Z,7.22
2023-11-02T19:08:15.059Z,9.63
2023-11-02T19:10:43.019Z,4.40
2023-11-02T19:13:10.839Z,11.55
2023-11-02T19:15:41.698Z,5.22
2023-11-02T19:18:09.513Z,5.72
2023-11-02T19:20:38.123Z,4.35
2023-11-02T19:23:06.316Z,8.48
2023-11-02T19:25:38.301Z,5.63
2023-11-02T19:28:06.128Z,5.07
2023-11-02T19:30:34.096Z,4.28
2023-11-02T19:33:02.102Z,5.00
2023-11-02T19:35:37.385Z,2.22
2023-11-02T19:38:05.340Z,4.05
2023-11-02T19:40:33.435Z,4.88
2023-11-02T19:43:01.537Z,4.93
2023-11-02T19:45:33.463Z,5.28
2023-11-02T19:48:01.617Z,3.42
2023-11-02T19:50:30.036Z,3.78
2023-11-02T19:52:57.811Z,5.65
2023-11-02T19:55:29.395Z,3.75
2023-11-02T19:57:58.173Z,4.10
2023-11-02T20:00:26.252Z,5.93
2023-11-02T20:02:54.915Z,5.03
2023-11-02T20:08:04.183Z,8.30
2023-11-02T20:10:32.601Z,5.40
2023-11-02T20:13:04.403Z,4.32
2023-11-02T20:15:32.106Z,1.88
2023-11-02T20:17:59.981Z,2.95
2023-11-02T20:20:27.991Z,4.97
2023-11-02T20:23:00.445Z,6.70
2023-11-02T20:25:28.388Z,6.97
2023-11-02T20:27:56.609Z,4.50
2023-11-02T20:30:24.522Z,3.40
2023-11-02T20:32:52.217Z,9.50
2023-11-02T20:35:20.016Z,5.88
2023-11-02T20:37:48.744Z,8.00
2023-11-02T20:40:17.029Z,10.52
2023-11-02T20:42:44.843Z,8.35
2023-11-02T20:45:15.373Z,7.68
2023-11-02T20:47:44.207Z,5.18
2023-11-02T20:50:12.087Z,4.72
2023-11-02T20:52:42.335Z,4.45
2023-11-02T20:55:10.438Z,5.57
2023-11-02T20:57:46.967Z,6.30
2023-11-02T21:00:22.547Z,2.97
2023-11-02T21:02:51.036Z,5.22
2023-11-02T21:05:19.346Z,3.90
2023-11-02T21:07:48.394Z,4.40
2023-11-02T21:10:16.178Z,2.72
2023-11-02T21:12:43.875Z,6.45
2023-11-02T21:15:11.827Z,3.55
2023-11-02T21:17:44.330Z,6.57
2023-11-02T21:20:12.402Z,3.08
2023-11-02T21:22:48.774Z,3.60
2023-11-02T21:25:16.391Z,3.38
2023-11-02T21:27:45.810Z,4.95
2023-11-02T21:30:14.381Z,3.92
2023-11-02T21:32:46.946Z,4.57
2023-11-02T21:35:15.853Z,3.63
2023-11-02T21:37:49.393Z,3.08
2023-11-02T21:40:17.403Z,4.03
2023-11-02T21:45:18.288Z,4.20
2023-11-02T21:47:50.296Z,2.50
2023-11-02T21:50:18.735Z,2.65
2023-11-02T21:55:27.946Z,5.00
2023-11-02T21:57:55.929Z,5.75
2023-11-02T22:00:23.943Z,7.22
2023-11-02T22:02:51.719Z,5.10
2023-11-02T22:05:19.642Z,5.70
2023-11-02T22:07:50.708Z,4.47
2023-11-02T22:10:18.517Z,4.97
2023-11-02T22:12:51.478Z,4.57
2023-11-02T22:15:19.388Z,3.58
2023-11-02T22:17:56.641Z,4.07
2023-11-02T22:20:24.717Z,3.72
2023-11-02T22:22:52.532Z,5.95
2023-11-02T22:25:20.104Z,3.17
2023-11-02T22:27:49.817Z,4.03
2023-11-02T22:30:17.950Z,4.90
2023-11-02T22:32:45.920Z,4.57
2023-11-02T22:35:13.989Z,5.20
2023-11-02T22:37:41.587Z,2.60
2023-11-02T22:40:09.897Z,5.32
2023-11-02T22:42:37.552Z,4.55
2023-11-02T22:45:05.918Z,4.95
2023-11-02T22:47:33.724Z,6.00
2023-11-02T22:50:04.020Z,5.10
2023-11-02T22:52:32.065Z,5.63
2023-11-02T22:54:59.981Z,4.43
2023-11-02T22:57:27.745Z,4.63
2023-11-02T22:59:59.236Z,4.05
2023-11-02T23:02:27.076Z,6.32
2023-11-02T23:04:58.736Z,6.60
2023-11-02T23:07:27.164Z,5.13
2023-11-02T23:09:58.755Z,3.90
2023-11-02T23:12:26.499Z,5.60
2023-11-02T23:15:02.590Z,4.50
2023-11-02T23:17:31.551Z,5.40
2023-11-02T23:19:59.931Z,5.80
2023-11-02T23:22:27.581Z,4.47
2023-11-02T23:24:55.256Z,7.07
2023-11-02T23:27:22.913Z,4.70
2023-11-02T23:29:50.565Z,6.63
2023-11-02T23:32:18.328Z,7.10
2023-11-02T23:34:46.234Z,5.82
2023-11-02T23:37:13.925Z,5.53
2023-11-02T23:39:41.590Z,6.78
2023-11-02T23:42:09.355Z,7.15
2023-11-02T23:44:37.508Z,5.13
2023-11-02T23:47:08.187Z,5.88
2023-11-02T23:49:35.908Z,5.80
2023-11-02T23:52:04.081Z,4.95
2023-11-02T23:54:31.758Z,3.25
2023-11-02T23:57:07.057Z,3.47
2023-11-02T23:59:34.876Z,2.80
